sensor_id;sensor_type;location;lat;lon;timestamp;pressure;altitude;pressure_sealevel;temperature;humidity
5905;BME280;2978;42.012;24.880;2023-02-28T00:00:00;99254.38;;;12.97;62.85
5905;BME280;2978;42.012;24.880;2023-02-28T00:02:26;99256.31;;;12.96;62.94
5905;BME280;2978;42.012;24.880;2023-02-28T00:04:51;99252.72;;;12.96;62.54
5905;BME280;2978;42.012;24.880;2023-02-28T00:07:26;99250.81;;;12.81;62.64
5905;BME280;2978;42.012;24.880;2023-02-28T00:09:52;99246.97;;;12.72;63.10
5905;BME280;2978;42.012;24.880;2023-02-28T00:12:18;99244.19;;;12.72;63.11
5905;BME280;2978;42.012;24.880;2023-02-28T00:14:43;99257.44;;;12.70;63.25
5905;BME280;2978;42.012;24.880;2023-02-28T00:17:08;99256.31;;;12.71;63.91
5905;BME280;2978;42.012;24.880;2023-02-28T00:19:34;99247.22;;;12.76;64.51
5905;BME280;2978;42.012;24.880;2023-02-28T00:21:59;99253.56;;;12.76;64.35
5905;BME280;2978;42.012;24.880;2023-02-28T00:24:25;99261.84;;;12.71;64.74
5905;BME280;2978;42.012;24.880;2023-02-28T00:26:50;99265.44;;;12.72;65.15
5905;BME280;2978;42.012;24.880;2023-02-28T00:29:15;99267.34;;;12.71;65.65
5905;BME280;2978;42.012;24.880;2023-02-28T00:31:41;99256.88;;;12.78;65.52
5905;BME280;2978;42.012;24.880;2023-02-28T00:34:06;99259.66;;;12.88;65.07
5905;BME280;2978;42.012;24.880;2023-02-28T00:36:32;99253.00;;;12.89;64.70
5905;BME280;2978;42.012;24.880;2023-02-28T00:38:57;99265.13;;;12.83;65.05
5905;BME280;2978;42.012;24.880;2023-02-28T00:41:22;99264.31;;;12.88;63.94
5905;BME280;2978;42.012;24.880;2023-02-28T00:43:48;99265.69;;;12.85;64.24
5905;BME280;2978;42.012;24.880;2023-02-28T00:46:13;99273.44;;;12.88;63.76
5905;BME280;2978;42.012;24.880;2023-02-28T00:48:39;99262.38;;;12.83;63.04
5905;BME280;2978;42.012;24.880;2023-02-28T00:51:05;99258.25;;;12.81;63.37
5905;BME280;2978;42.012;24.880;2023-02-28T00:53:30;99266.81;;;12.74;64.48
5905;BME280;2978;42.012;24.880;2023-02-28T00:55:57;99270.97;;;12.67;64.80
5905;BME280;2978;42.012;24.880;2023-02-28T00:58:23;99279.50;;;12.70;64.83
5905;BME280;2978;42.012;24.880;2023-02-28T01:00:49;99279.22;;;12.67;64.80
5905;BME280;2978;42.012;24.880;2023-02-28T01:03:18;99274.56;;;12.62;64.78
5905;BME280;2978;42.012;24.880;2023-02-28T01:05:45;99301.31;;;12.57;65.20
5905;BME280;2978;42.012;24.880;2023-02-28T01:08:12;99296.28;;;12.28;65.45
5905;BME280;2978;42.012;24.880;2023-02-28T01:10:39;99297.06;;;12.09;66.34
5905;BME280;2978;42.012;24.880;2023-02-28T01:13:04;99317.63;;;11.71;68.11
5905;BME280;2978;42.012;24.880;2023-02-28T01:15:30;99318.16;;;11.31;69.96
5905;BME280;2978;42.012;24.880;2023-02-28T01:17:57;99315.22;;;10.96;72.04
5905;BME280;2978;42.012;24.880;2023-02-28T01:20:22;99326.69;;;10.88;73.00
5905;BME280;2978;42.012;24.880;2023-02-28T01:22:48;99315.66;;;10.83;73.84
5905;BME280;2978;42.012;24.880;2023-02-28T01:25:13;99320.53;;;10.76;75.11
5905;BME280;2978;42.012;24.880;2023-02-28T01:27:39;99337.13;;;10.86;75.43
5905;BME280;2978;42.012;24.880;2023-02-28T01:30:06;99329.41;;;10.83;75.79
5905;BME280;2978;42.012;24.880;2023-02-28T01:32:32;99325.97;;;10.66;76.37
5905;BME280;2978;42.012;24.880;2023-02-28T01:34:57;99343.78;;;10.64;77.25
5905;BME280;2978;42.012;24.880;2023-02-28T01:37:23;99340.75;;;10.60;77.90
5905;BME280;2978;42.012;24.880;2023-02-28T01:39:48;99342.16;;;10.63;77.77
5905;BME280;2978;42.012;24.880;2023-02-28T01:42:13;99343.53;;;10.65;77.62
5905;BME280;2978;42.012;24.880;2023-02-28T01:45:02;99348.03;;;10.76;77.39
5905;BME280;2978;42.012;24.880;2023-02-28T01:47:38;99344.38;;;10.66;77.43
5905;BME280;2978;42.012;24.880;2023-02-28T01:50:08;99344.16;;;10.72;77.28
5905;BME280;2978;42.012;24.880;2023-02-28T01:52:35;99346.16;;;10.82;76.82
5905;BME280;2978;42.012;24.880;2023-02-28T01:55:02;99340.97;;;10.85;76.49
5905;BME280;2978;42.012;24.880;2023-02-28T01:57:34;99355.59;;;10.91;75.93
5905;BME280;2978;42.012;24.880;2023-02-28T02:00:23;99355.00;;;10.84;76.44
5905;BME280;2978;42.012;24.880;2023-02-28T02:02:53;99358.56;;;10.84;76.94
5905;BME280;2978;42.012;24.880;2023-02-28T02:05:22;99355.22;;;10.77;77.19
5905;BME280;2978;42.012;24.880;2023-02-28T02:07:54;99359.72;;;10.93;76.94
5905;BME280;2978;42.012;24.880;2023-02-28T02:10:27;99370.31;;;11.06;76.53
5905;BME280;2978;42.012;24.880;2023-02-28T02:13:04;99375.34;;;11.19;74.33
5905;BME280;2978;42.012;24.880;2023-02-28T02:21:41;99369.03;;;11.61;70.78
5905;BME280;2978;42.012;24.880;2023-02-28T02:27:23;99362.75;;;11.65;71.11
5905;BME280;2978;42.012;24.880;2023-02-28T02:40:37;99371.31;;;11.74;75.37
5905;BME280;2978;42.012;24.880;2023-02-28T02:43:13;99377.16;;;11.87;75.22
5905;BME280;2978;42.012;24.880;2023-02-28T02:45:53;99378.84;;;11.93;75.80
5905;BME280;2978;42.012;24.880;2023-02-28T02:48:21;99395.13;;;12.00;75.54
5905;BME280;2978;42.012;24.880;2023-02-28T02:50:54;99394.56;;;11.98;78.59
5905;BME280;2978;42.012;24.880;2023-02-28T02:53:25;99401.75;;;11.99;79.98
5905;BME280;2978;42.012;24.880;2023-02-28T02:55:54;99400.38;;;12.01;80.77
5905;BME280;2978;42.012;24.880;2023-02-28T02:58:24;99398.72;;;12.00;81.73
5905;BME280;2978;42.012;24.880;2023-02-28T03:00:55;99401.53;;;12.10;81.68
5905;BME280;2978;42.012;24.880;2023-02-28T03:03:23;99397.13;;;12.04;81.47
5905;BME280;2978;42.012;24.880;2023-02-28T03:05:56;99410.56;;;11.96;81.58
5905;BME280;2978;42.012;24.880;2023-02-28T03:08:22;99417.16;;;11.90;82.28
5905;BME280;2978;42.012;24.880;2023-02-28T03:10:55;99415.94;;;11.71;83.07
5905;BME280;2978;42.012;24.880;2023-02-28T03:13:55;99419.28;;;11.41;83.86
5905;BME280;2978;42.012;24.880;2023-02-28T03:16:46;99423.16;;;11.08;85.24
5905;BME280;2978;42.012;24.880;2023-02-28T03:19:37;99413.69;;;10.94;86.00
5905;BME280;2978;42.012;24.880;2023-02-28T03:24:45;99420.41;;;10.55;88.38
5905;BME280;2978;42.012;24.880;2023-02-28T03:30:11;99431.91;;;10.26;89.59
5905;BME280;2978;42.012;24.880;2023-02-28T03:33:00;99447.06;;;10.28;89.53
5905;BME280;2978;42.012;24.880;2023-02-28T03:35:37;99438.34;;;10.36;88.96
5905;BME280;2978;42.012;24.880;2023-02-28T03:38:18;99440.41;;;10.46;88.92
5905;BME280;2978;42.012;24.880;2023-02-28T03:41:16;99450.88;;;10.49;89.17
5905;BME280;2978;42.012;24.880;2023-02-28T03:43:58;99452.91;;;10.58;89.69
5905;BME280;2978;42.012;24.880;2023-02-28T03:46:27;99452.38;;;10.61;89.74
5905;BME280;2978;42.012;24.880;2023-02-28T03:49:07;99462.28;;;10.62;90.23
5905;BME280;2978;42.012;24.880;2023-02-28T03:51:35;99458.97;;;10.60;90.50
5905;BME280;2978;42.012;24.880;2023-02-28T03:54:05;99461.72;;;10.60;91.14
5905;BME280;2978;42.012;24.880;2023-02-28T03:56:42;99465.31;;;10.61;90.96
5905;BME280;2978;42.012;24.880;2023-02-28T03:59:26;99460.38;;;10.63;90.64
5905;BME280;2978;42.012;24.880;2023-02-28T04:01:53;99473.75;;;10.54;91.70
5905;BME280;2978;42.012;24.880;2023-02-28T04:04:20;99477.94;;;10.62;91.44
5905;BME280;2978;42.012;24.880;2023-02-28T04:06:49;99471.63;;;10.61;91.63
5905;BME280;2978;42.012;24.880;2023-02-28T04:09:15;99483.91;;;10.75;91.16
5905;BME280;2978;42.012;24.880;2023-02-28T04:11:46;99474.22;;;10.73;90.66
5905;BME280;2978;42.012;24.880;2023-02-28T04:14:14;99482.34;;;10.84;90.01
5905;BME280;2978;42.012;24.880;2023-02-28T04:16:41;99479.13;;;10.92;89.70
5905;BME280;2978;42.012;24.880;2023-02-28T04:19:07;99482.28;;;10.79;90.05
5905;BME280;2978;42.012;24.880;2023-02-28T04:21:35;99474.38;;;10.61;90.78
5905;BME280;2978;42.012;24.880;2023-02-28T04:24:02;99487.09;;;10.67;90.72
5905;BME280;2978;42.012;24.880;2023-02-28T04:26:31;99490.38;;;10.64;90.85
5905;BME280;2978;42.012;24.880;2023-02-28T04:28:57;99483.06;;;10.53;91.03
5905;BME280;2978;42.012;24.880;2023-02-28T04:31:23;99486.34;;;10.50;91.26
5905;BME280;2978;42.012;24.880;2023-02-28T04:33:48;99495.16;;;10.52;90.96
5905;BME280;2978;42.012;24.880;2023-02-28T04:36:14;99495.22;;;10.57;90.39
5905;BME280;2978;42.012;24.880;2023-02-28T04:38:40;99490.38;;;10.64;89.61
5905;BME280;2978;42.012;24.880;2023-02-28T04:41:06;99485.97;;;10.63;89.56
5905;BME280;2978;42.012;24.880;2023-02-28T04:43:31;99490.94;;;10.66;89.22
5905;BME280;2978;42.012;24.880;2023-02-28T04:46:00;99485.34;;;10.56;88.56
5905;BME280;2978;42.012;24.880;2023-02-28T04:48:28;99506.94;;;10.48;89.65
5905;BME280;2978;42.012;24.880;2023-02-28T04:50:54;99505.16;;;10.37;89.89
5905;BME280;2978;42.012;24.880;2023-02-28T04:53:21;99502.25;;;10.48;90.03
5905;BME280;2978;42.012;24.880;2023-02-28T04:55:46;99514.94;;;10.49;89.77
5905;BME280;2978;42.012;24.880;2023-02-28T04:58:13;99506.38;;;10.46;89.57
5905;BME280;2978;42.012;24.880;2023-02-28T05:00:38;99507.69;;;10.43;89.45
5905;BME280;2978;42.012;24.880;2023-02-28T05:03:03;99506.75;;;10.33;89.93
5905;BME280;2978;42.012;24.880;2023-02-28T05:05:29;99502.09;;;10.33;90.17
5905;BME280;2978;42.012;24.880;2023-02-28T05:07:54;99502.53;;;10.25;90.49
5905;BME280;2978;42.012;24.880;2023-02-28T05:10:22;99513.75;;;10.23;90.98
5905;BME280;2978;42.012;24.880;2023-02-28T05:12:47;99523.75;;;10.30;90.53
5905;BME280;2978;42.012;24.880;2023-02-28T05:15:14;99523.28;;;10.38;90.45
5905;BME280;2978;42.012;24.880;2023-02-28T05:17:41;99531.50;;;10.54;89.37
5905;BME280;2978;42.012;24.880;2023-02-28T05:20:07;99530.91;;;10.52;88.84
5905;BME280;2978;42.012;24.880;2023-02-28T05:22:36;99526.50;;;10.51;89.28
5905;BME280;2978;42.012;24.880;2023-02-28T05:25:03;99531.28;;;10.61;88.85
5905;BME280;2978;42.012;24.880;2023-02-28T05:27:29;99526.34;;;10.41;89.54
5905;BME280;2978;42.012;24.880;2023-02-28T05:29:54;99530.84;;;10.47;89.08
5905;BME280;2978;42.012;24.880;2023-02-28T05:32:20;99544.34;;;10.49;88.98
5905;BME280;2978;42.012;24.880;2023-02-28T05:34:45;99544.84;;;10.46;89.00
5905;BME280;2978;42.012;24.880;2023-02-28T05:37:12;99553.69;;;10.48;89.22
5905;BME280;2978;42.012;24.880;2023-02-28T05:39:38;99548.94;;;10.43;89.06
5905;BME280;2978;42.012;24.880;2023-02-28T05:42:04;99560.81;;;10.49;89.37
5905;BME280;2978;42.012;24.880;2023-02-28T05:44:29;99556.16;;;10.49;88.97
5905;BME280;2978;42.012;24.880;2023-02-28T05:46:55;99565.88;;;10.57;88.93
5905;BME280;2978;42.012;24.880;2023-02-28T05:49:21;99568.41;;;10.58;89.03
5905;BME280;2978;42.012;24.880;2023-02-28T05:51:46;99572.72;;;10.76;88.22
5905;BME280;2978;42.012;24.880;2023-02-28T05:54:12;99575.25;;;10.77;87.54
5905;BME280;2978;42.012;24.880;2023-02-28T05:56:37;99578.16;;;10.71;87.27
5905;BME280;2978;42.012;24.880;2023-02-28T05:59:05;99573.38;;;10.61;87.49
5905;BME280;2978;42.012;24.880;2023-02-28T06:01:39;99573.13;;;10.63;88.12
5905;BME280;2978;42.012;24.880;2023-02-28T06:04:07;99590.16;;;10.43;88.12
5905;BME280;2978;42.012;24.880;2023-02-28T06:06:33;99597.00;;;10.41;88.89
5905;BME280;2978;42.012;24.880;2023-02-28T06:09:03;99587.66;;;10.42;88.79
5905;BME280;2978;42.012;24.880;2023-02-28T06:11:29;99587.00;;;10.51;88.96
5905;BME280;2978;42.012;24.880;2023-02-28T06:13:56;99592.97;;;10.48;88.44
5905;BME280;2978;42.012;24.880;2023-02-28T06:16:23;99597.41;;;10.49;88.40
5905;BME280;2978;42.012;24.880;2023-02-28T06:18:49;99593.44;;;10.62;88.45
5905;BME280;2978;42.012;24.880;2023-02-28T06:21:14;99595.50;;;10.71;87.64
5905;BME280;2978;42.012;24.880;2023-02-28T06:23:40;99597.66;;;10.69;87.64
5905;BME280;2978;42.012;24.880;2023-02-28T06:26:05;99603.69;;;10.66;87.63
5905;BME280;2978;42.012;24.880;2023-02-28T06:28:31;99613.66;;;10.72;87.60
5905;BME280;2978;42.012;24.880;2023-02-28T06:30:57;99620.06;;;10.56;87.71
5905;BME280;2978;42.012;24.880;2023-02-28T06:33:22;99617.47;;;10.50;88.33
5905;BME280;2978;42.012;24.880;2023-02-28T06:35:50;99610.56;;;10.47;88.42
5905;BME280;2978;42.012;24.880;2023-02-28T06:38:16;99614.97;;;10.48;88.84
5905;BME280;2978;42.012;24.880;2023-02-28T06:40:41;99600.81;;;10.56;88.34
5905;BME280;2978;42.012;24.880;2023-02-28T06:43:06;99606.25;;;10.51;88.71
5905;BME280;2978;42.012;24.880;2023-02-28T06:45:32;99605.34;;;10.46;88.50
5905;BME280;2978;42.012;24.880;2023-02-28T06:47:58;99601.94;;;10.60;88.61
5905;BME280;2978;42.012;24.880;2023-02-28T06:50:25;99601.91;;;10.77;87.66
5905;BME280;2978;42.012;24.880;2023-02-28T06:52:50;99611.38;;;10.86;87.38
5905;BME280;2978;42.012;24.880;2023-02-28T06:55:19;99606.69;;;10.86;86.65
5905;BME280;2978;42.012;24.880;2023-02-28T06:57:44;99605.56;;;10.82;87.06
5905;BME280;2978;42.012;24.880;2023-02-28T07:00:11;99609.38;;;10.81;87.05
5905;BME280;2978;42.012;24.880;2023-02-28T07:02:37;99614.50;;;10.73;87.16
5905;BME280;2978;42.012;24.880;2023-02-28T07:05:04;99604.91;;;10.75;87.59
5905;BME280;2978;42.012;24.880;2023-02-28T07:07:30;99606.25;;;10.94;87.19
5905;BME280;2978;42.012;24.880;2023-02-28T07:09:55;99604.31;;;10.73;87.08
5905;BME280;2978;42.012;24.880;2023-02-28T07:12:21;99613.75;;;10.77;87.63
5905;BME280;2978;42.012;24.880;2023-02-28T07:14:47;99607.00;;;10.68;87.13
5905;BME280;2978;42.012;24.880;2023-02-28T07:17:12;99615.13;;;10.58;88.03
5905;BME280;2978;42.012;24.880;2023-02-28T07:19:39;99621.63;;;10.52;87.73
5905;BME280;2978;42.012;24.880;2023-02-28T07:22:05;99619.47;;;10.54;88.09
5905;BME280;2978;42.012;24.880;2023-02-28T07:24:30;99607.50;;;10.65;88.09
5905;BME280;2978;42.012;24.880;2023-02-28T07:26:56;99606.69;;;10.86;87.05
5905;BME280;2978;42.012;24.880;2023-02-28T07:29:21;99605.81;;;10.81;86.33
5905;BME280;2978;42.012;24.880;2023-02-28T07:31:47;99613.88;;;10.87;86.07
5905;BME280;2978;42.012;24.880;2023-02-28T07:34:13;99610.75;;;11.05;85.74
5905;BME280;2978;42.012;24.880;2023-02-28T07:36:39;99610.59;;;11.12;84.85
5905;BME280;2978;42.012;24.880;2023-02-28T07:39:04;99618.59;;;11.13;84.35
5905;BME280;2978;42.012;24.880;2023-02-28T07:41:30;99607.00;;;11.11;84.65
5905;BME280;2978;42.012;24.880;2023-02-28T07:43:58;99611.63;;;11.32;83.94
5905;BME280;2978;42.012;24.880;2023-02-28T07:46:25;99612.81;;;11.15;85.13
5905;BME280;2978;42.012;24.880;2023-02-28T07:48:51;99614.78;;;11.19;84.83
5905;BME280;2978;42.012;24.880;2023-02-28T07:51:18;99611.31;;;11.29;84.56
5905;BME280;2978;42.012;24.880;2023-02-28T07:53:44;99618.72;;;11.50;83.31
5905;BME280;2978;42.012;24.880;2023-02-28T07:56:09;99617.38;;;11.58;82.94
5905;BME280;2978;42.012;24.880;2023-02-28T07:58:36;99620.78;;;11.65;82.60
5905;BME280;2978;42.012;24.880;2023-02-28T08:01:06;99619.47;;;11.67;82.18
5905;BME280;2978;42.012;24.880;2023-02-28T08:03:31;99624.16;;;11.72;81.72
5905;BME280;2978;42.012;24.880;2023-02-28T08:05:57;99640.00;;;11.86;81.50
5905;BME280;2978;42.012;24.880;2023-02-28T08:08:22;99632.63;;;11.92;80.33
5905;BME280;2978;42.012;24.880;2023-02-28T08:10:47;99634.59;;;11.96;80.38
5905;BME280;2978;42.012;24.880;2023-02-28T08:13:13;99636.88;;;12.04;79.86
5905;BME280;2978;42.012;24.880;2023-02-28T08:15:40;99627.16;;;11.97;80.16
5905;BME280;2978;42.012;24.880;2023-02-28T08:18:06;99614.41;;;11.91;80.41
5905;BME280;2978;42.012;24.880;2023-02-28T08:20:32;99622.22;;;11.99;80.51
5905;BME280;2978;42.012;24.880;2023-02-28T08:22:57;99620.06;;;12.06;80.24
5905;BME280;2978;42.012;24.880;2023-02-28T08:25:23;99626.81;;;12.20;79.77
5905;BME280;2978;42.012;24.880;2023-02-28T08:27:51;99622.84;;;12.06;80.05
5905;BME280;2978;42.012;24.880;2023-02-28T08:30:17;99625.75;;;12.31;79.33
5905;BME280;2978;42.012;24.880;2023-02-28T08:32:42;99626.91;;;12.35;78.30
5905;BME280;2978;42.012;24.880;2023-02-28T08:35:08;99626.97;;;12.45;78.20
5905;BME280;2978;42.012;24.880;2023-02-28T08:37:36;99620.25;;;12.31;79.05
5905;BME280;2978;42.012;24.880;2023-02-28T08:40:02;99634.56;;;12.28;79.36
5905;BME280;2978;42.012;24.880;2023-02-28T08:42:29;99625.00;;;12.40;78.56
5905;BME280;2978;42.012;24.880;2023-02-28T08:44:54;99620.63;;;12.44;78.00
5905;BME280;2978;42.012;24.880;2023-02-28T08:47:20;99620.09;;;12.48;78.33
5905;BME280;2978;42.012;24.880;2023-02-28T08:49:45;99637.28;;;12.60;78.13
5905;BME280;2978;42.012;24.880;2023-02-28T08:52:11;99625.47;;;12.69;77.57
5905;BME280;2978;42.012;24.880;2023-02-28T08:54:36;99625.44;;;13.11;75.81
5905;BME280;2978;42.012;24.880;2023-02-28T08:57:03;99621.94;;;13.45;74.73
5905;BME280;2978;42.012;24.880;2023-02-28T08:59:29;99629.13;;;13.46;73.75
5905;BME280;2978;42.012;24.880;2023-02-28T09:01:54;99626.41;;;13.82;73.34
5905;BME280;2978;42.012;24.880;2023-02-28T09:04:20;99626.69;;;13.95;72.25
5905;BME280;2978;42.012;24.880;2023-02-28T09:06:45;99638.59;;;14.01;71.77
5905;BME280;2978;42.012;24.880;2023-02-28T09:09:10;99629.44;;;13.70;72.46
5905;BME280;2978;42.012;24.880;2023-02-28T09:11:36;99616.75;;;13.99;72.73
5905;BME280;2978;42.012;24.880;2023-02-28T09:14:02;99609.84;;;14.22;71.45
5905;BME280;2978;42.012;24.880;2023-02-28T09:16:29;99610.09;;;14.45;70.59
5905;BME280;2978;42.012;24.880;2023-02-28T09:18:56;99613.41;;;14.47;69.81
5905;BME280;2978;42.012;24.880;2023-02-28T09:21:21;99611.22;;;14.49;69.42
5905;BME280;2978;42.012;24.880;2023-02-28T09:23:48;99614.25;;;14.53;69.99
5905;BME280;2978;42.012;24.880;2023-02-28T09:26:20;99612.06;;;14.40;69.39
5905;BME280;2978;42.012;24.880;2023-02-28T09:28:46;99614.53;;;14.11;70.34
5905;BME280;2978;42.012;24.880;2023-02-28T09:31:13;99608.47;;;13.84;71.42
5905;BME280;2978;42.012;24.880;2023-02-28T09:33:39;99609.78;;;13.56;72.57
5905;BME280;2978;42.012;24.880;2023-02-28T09:36:05;99611.13;;;13.34;73.82
5905;BME280;2978;42.012;24.880;2023-02-28T09:38:31;99609.97;;;13.15;75.07
5905;BME280;2978;42.012;24.880;2023-02-28T09:40:59;99605.69;;;12.92;75.37
5905;BME280;2978;42.012;24.880;2023-02-28T09:43:29;99613.78;;;12.57;77.37
5905;BME280;2978;42.012;24.880;2023-02-28T09:48:47;99612.75;;;12.21;79.56
5905;BME280;2978;42.012;24.880;2023-02-28T09:54:19;99616.19;;;12.02;81.21
5905;BME280;2978;42.012;24.880;2023-02-28T09:57:15;99602.97;;;12.04;81.62
5905;BME280;2978;42.012;24.880;2023-02-28T10:00:00;99612.41;;;12.13;80.59
5905;BME280;2978;42.012;24.880;2023-02-28T10:05:30;99611.16;;;11.94;81.63
5905;BME280;2978;42.012;24.880;2023-02-28T10:08:13;99590.50;;;11.96;82.21
5905;BME280;2978;42.012;24.880;2023-02-28T10:16:28;99584.09;;;11.91;82.21
5905;BME280;2978;42.012;24.880;2023-02-28T10:19:14;99579.56;;;12.06;81.69
5905;BME280;2978;42.012;24.880;2023-02-28T10:21:56;99578.66;;;11.96;82.30
5905;BME280;2978;42.012;24.880;2023-02-28T10:27:30;99577.78;;;11.90;82.10
5905;BME280;2978;42.012;24.880;2023-02-28T10:29:57;99571.75;;;11.93;81.91
5905;BME280;2978;42.012;24.880;2023-02-28T10:32:25;99573.00;;;11.81;82.68
5905;BME280;2978;42.012;24.880;2023-02-28T10:35:11;99566.22;;;11.62;83.41
5905;BME280;2978;42.012;24.880;2023-02-28T10:37:41;99581.13;;;11.39;84.10
5905;BME280;2978;42.012;24.880;2023-02-28T10:40:27;99574.56;;;11.13;85.19
5905;BME280;2978;42.012;24.880;2023-02-28T10:43:03;99575.72;;;10.96;87.23
5905;BME280;2978;42.012;24.880;2023-02-28T10:45:34;99578.94;;;10.88;87.89
5905;BME280;2978;42.012;24.880;2023-02-28T10:48:26;99575.34;;;10.87;88.54
5905;BME280;2978;42.012;24.880;2023-02-28T10:50:53;99561.03;;;10.85;88.74
5905;BME280;2978;42.012;24.880;2023-02-28T11:01:21;99554.19;;;10.66;89.93
5905;BME280;2978;42.012;24.880;2023-02-28T11:03:48;99558.91;;;10.71;90.14
5905;BME280;2978;42.012;24.880;2023-02-28T11:06:21;99563.19;;;10.83;90.07
5905;BME280;2978;42.012;24.880;2023-02-28T11:08:53;99546.44;;;10.85;89.26
5905;BME280;2978;42.012;24.880;2023-02-28T11:11:20;99551.03;;;10.79;89.88
5905;BME280;2978;42.012;24.880;2023-02-28T11:13:47;99541.34;;;10.72;89.45
5905;BME280;2978;42.012;24.880;2023-02-28T11:16:15;99549.91;;;10.75;90.09
5905;BME280;2978;42.012;24.880;2023-02-28T11:21:09;99548.75;;;10.71;89.64
5905;BME280;2978;42.012;24.880;2023-02-28T11:23:40;99540.91;;;10.58;91.04
5905;BME280;2978;42.012;24.880;2023-02-28T11:26:06;99541.25;;;10.45;91.95
5905;BME280;2978;42.012;24.880;2023-02-28T11:28:40;99530.84;;;10.47;91.98
5905;BME280;2978;42.012;24.880;2023-02-28T11:33:53;99547.25;;;10.64;91.37
5905;BME280;2978;42.012;24.880;2023-02-28T11:38:50;99552.53;;;10.44;92.20
5905;BME280;2978;42.012;24.880;2023-02-28T11:44:21;99526.88;;;10.38;92.64
5905;BME280;2978;42.012;24.880;2023-02-28T11:47:09;99528.22;;;10.36;93.03
5905;BME280;2978;42.012;24.880;2023-02-28T11:49:54;99524.25;;;10.27;93.35
5905;BME280;2978;42.012;24.880;2023-02-28T11:55:25;99530.34;;;10.50;93.73
5905;BME280;2978;42.012;24.880;2023-02-28T12:03:29;99532.81;;;10.52;94.94
5905;BME280;2978;42.012;24.880;2023-02-28T12:25:21;99518.44;;;10.88;93.84
5905;BME280;2978;42.012;24.880;2023-02-28T12:27:49;99512.66;;;10.89;93.90
5905;BME280;2978;42.012;24.880;2023-02-28T12:30:31;99522.50;;;10.85;93.86
5905;BME280;2978;42.012;24.880;2023-02-28T12:33:14;99528.41;;;10.72;94.14
5905;BME280;2978;42.012;24.880;2023-02-28T12:35:52;99522.88;;;10.72;94.39
5905;BME280;2978;42.012;24.880;2023-02-28T12:38:45;99521.94;;;10.62;95.77
5905;BME280;2978;42.012;24.880;2023-02-28T12:41:16;99518.91;;;10.58;96.59
5905;BME280;2978;42.012;24.880;2023-02-28T12:43:47;99516.53;;;10.67;97.10
5905;BME280;2978;42.012;24.880;2023-02-28T12:46:23;99513.06;;;10.76;97.66
5905;BME280;2978;42.012;24.880;2023-02-28T12:48:55;99512.03;;;10.82;96.46
5905;BME280;2978;42.012;24.880;2023-02-28T12:51:22;99512.66;;;10.89;96.94
5905;BME280;2978;42.012;24.880;2023-02-28T12:59:02;99499.38;;;11.08;94.96
5905;BME280;2978;42.012;24.880;2023-02-28T13:07:08;99506.41;;;10.99;94.78
5905;BME280;2978;42.012;24.880;2023-02-28T13:09:37;99507.31;;;11.04;96.29
5905;BME280;2978;42.012;24.880;2023-02-28T13:12:13;99506.81;;;11.12;96.45
5905;BME280;2978;42.012;24.880;2023-02-28T13:14:39;99506.94;;;11.22;96.20
5905;BME280;2978;42.012;24.880;2023-02-28T13:19:57;99502.97;;;11.40;94.72
5905;BME280;2978;42.012;24.880;2023-02-28T13:27:50;99501.22;;;11.02;96.20
5905;BME280;2978;42.012;24.880;2023-02-28T13:33:32;99506.94;;;10.48;99.71
5905;BME280;2978;42.012;24.880;2023-02-28T13:44:19;99496.19;;;10.25;100.00
5905;BME280;2978;42.012;24.880;2023-02-28T13:52:12;99496.66;;;10.38;100.00
5905;BME280;2978;42.012;24.880;2023-02-28T13:55:10;99494.53;;;10.45;100.00
5905;BME280;2978;42.012;24.880;2023-02-28T14:04:02;99498.19;;;10.51;100.00
5905;BME280;2978;42.012;24.880;2023-02-28T14:06:33;99502.16;;;10.60;100.00
5905;BME280;2978;42.012;24.880;2023-02-28T14:11:40;99500.72;;;10.57;100.00
5905;BME280;2978;42.012;24.880;2023-02-28T14:14:08;99494.16;;;10.58;100.00
5905;BME280;2978;42.012;24.880;2023-02-28T14:16:47;99496.97;;;10.63;100.00
5905;BME280;2978;42.012;24.880;2023-02-28T14:19:28;99505.66;;;10.55;100.00
5905;BME280;2978;42.012;24.880;2023-02-28T14:33:13;99505.00;;;10.70;100.00
5905;BME280;2978;42.012;24.880;2023-02-28T14:38:27;99504.22;;;10.74;100.00
5905;BME280;2978;42.012;24.880;2023-02-28T14:40:57;99502.25;;;10.70;100.00
5905;BME280;2978;42.012;24.880;2023-02-28T14:43:27;99510.44;;;10.65;100.00
5905;BME280;2978;42.012;24.880;2023-02-28T14:46:02;99511.72;;;10.57;100.00
5905;BME280;2978;42.012;24.880;2023-02-28T14:48:29;99513.84;;;10.50;100.00
5905;BME280;2978;42.012;24.880;2023-02-28T14:50:58;99517.44;;;10.51;100.00
5905;BME280;2978;42.012;24.880;2023-02-28T14:53:27;99512.78;;;10.51;100.00
5905;BME280;2978;42.012;24.880;2023-02-28T14:55:53;99516.31;;;10.52;100.00
5905;BME280;2978;42.012;24.880;2023-02-28T14:58:27;99516.16;;;10.58;100.00
5905;BME280;2978;42.012;24.880;2023-02-28T15:00:57;99521.78;;;10.68;100.00
5905;BME280;2978;42.012;24.880;2023-02-28T15:06:00;99524.69;;;10.83;100.00
5905;BME280;2978;42.012;24.880;2023-02-28T15:08:27;99522.81;;;10.89;100.00
5905;BME280;2978;42.012;24.880;2023-02-28T15:11:04;99541.34;;;10.72;100.00
5905;BME280;2978;42.012;24.880;2023-02-28T15:13:43;99536.41;;;10.74;100.00
5905;BME280;2978;42.012;24.880;2023-02-28T15:18:50;99544.41;;;10.75;100.00
5905;BME280;2978;42.012;24.880;2023-02-28T15:21:21;99544.97;;;10.77;100.00
5905;BME280;2978;42.012;24.880;2023-02-28T15:24:30;99541.75;;;10.85;100.00
5905;BME280;2978;42.012;24.880;2023-02-28T15:27:00;99545.66;;;10.89;100.00
5905;BME280;2978;42.012;24.880;2023-02-28T15:29:29;99547.84;;;10.87;100.00
5905;BME280;2978;42.012;24.880;2023-02-28T15:32:03;99541.91;;;10.74;100.00
5905;BME280;2978;42.012;24.880;2023-02-28T15:37:00;99538.28;;;10.68;100.00
5905;BME280;2978;42.012;24.880;2023-02-28T15:39:27;99549.75;;;10.65;100.00
5905;BME280;2978;42.012;24.880;2023-02-28T15:42:16;99545.31;;;10.59;100.00
5905;BME280;2978;42.012;24.880;2023-02-28T15:44:43;99542.53;;;10.38;100.00
5905;BME280;2978;42.012;24.880;2023-02-28T15:47:21;99556.31;;;10.04;100.00
5905;BME280;2978;42.012;24.880;2023-02-28T15:50:10;99565.31;;;10.00;100.00
5905;BME280;2978;42.012;24.880;2023-02-28T15:52:39;99552.75;;;9.87;100.00
5905;BME280;2978;42.012;24.880;2023-02-28T15:55:26;99562.84;;;9.98;100.00
5905;BME280;2978;42.012;24.880;2023-02-28T15:57:55;99557.84;;;9.79;100.00